Aquilla, TX (76622)

2:13 PM CDT on April 27, 2015 (GMT -0500)
Tokio | | Change Station
CLOSE
Current Station
Personal Weather Station
Location: West, TX
Elevation: 587 ft
Nearby Weather Stations

Elev 587 ft 31.77 °N, 97.17 °W | Updated 6 seconds ago

Overcast
Overcast
72.1 °F
Feels Like 74 °F
N
0.0
Wind Variable Wind from WNW
Gusts 0.0 mph

Today
High -- | Low -- °F
--% Chance of Precip.
Yesterday
High -- | Low -- °F
Precip. -- in
6:47 AM 8:06 PM
Waxing Gibbous, 67% visible
Pressure 29.73 in
Visibility 10.0 miles
Clouds Mostly Cloudy 2500 ft
Overcast 3100 ft
Heat Index 74 °F
Dew Point 62 °F
Humidity 71%
Rainfall 0.00 in
Snow Depth Not available.
UV 0.0 out of 12
Pollen 8.70 out of 12
Air Quality Not available.
Flu Activity Local Activity
METAR KINJ 271855Z AUTO 05006KT 10SM BKN025 OVC031 21/16 A2973 RMK AO2 T02140160

More Conditions Fewer Conditions

Pressure 29.73 in
Visibility 10.0 miles
Clouds Mostly Cloudy 2500 ft
Overcast 3100 ft
Heat Index 74 °F
Dew Point 62 °F
Humidity 71%
Rainfall 0.00 in
Snow Depth Not available.
UV 0.0 out of 12
Pollen 8.70 out of 12
Air Quality Not available.
Flu Activity Local Activity
METAR KINJ 271855Z AUTO 05006KT 10SM BKN025 OVC031 21/16 A2973 RMK AO2 T02140160

More Conditions Fewer Conditions

Nowcast | as of 12:50 PM CDT on April 27, 2015

Isolated showers and thunderstorms near Jacksboro and Mineral Wells will continue to move eastward toward the Interstate 35 corridor this afternoon. Additional showers and storms are expected to develop south of Interstate 20 and west of Interstate 35 this afternoon. These storms will be capable of producing brief heavy rain...cloud to ground lightning...and gusty winds. Elsewhere...skies will remain mostly cloudy with temperatures climbing into the low 70s. Areas that see sunshine this afternoon will see high temperatures near 80 degrees.

×

10-Day Weather Forecast

Almanac

Astronomy

Apr. 27, 2015 Rise Set
Actual Time
Civil Twilight
Nautical Twilight
Astronomical Twilight
Moon
Length of Visible Light
Length of Day
Tomorrow will be .
, % of the Moon is Illuminated

Today's Extremes

State Highs State Lows

Community

WunderPhotos

Upload Photos

1,817,409 photos uploaded!

WunderBlogs® & News

Nearby

Air Quality

  Air Quality AQ Index Pollutant
Not available.

Snow Depth

Station Depth Elevation

Earthquake Activity

City Distance Mag. Time & Date
Minimum magnitude displayed is 2.5.

Coastal Water Temperatures

Place Temperature

Stations

Nearby Weather Stations

Station Location Temp. Windchill Dew Point Humidity Wind Precip. Elev Updated Type